createdAt,value
2017-10-25T00:01:42.207Z,9.10
2017-10-25T00:04:09.733Z,10.60
2017-10-25T00:06:38.054Z,8.97
2017-10-25T00:09:05.575Z,8.47
2017-10-25T00:11:33.867Z,11.10
2017-10-25T00:14:01.415Z,9.37
2017-10-25T00:16:29.711Z,9.20
2017-10-25T00:18:57.250Z,9.30
2017-10-25T00:21:25.543Z,10.33
2017-10-25T00:23:53.078Z,8.60
2017-10-25T00:26:20.599Z,9.03
2017-10-25T00:28:48.147Z,10.90
2017-10-25T00:31:15.670Z,11.23
2017-10-25T00:33:43.991Z,10.83
2017-10-25T00:36:11.516Z,10.13
2017-10-25T00:38:39.823Z,8.80
2017-10-25T00:41:07.339Z,8.63
2017-10-25T00:43:35.654Z,10.57
2017-10-25T00:46:03.178Z,9.67
2017-10-25T00:48:31.487Z,9.80
2017-10-25T00:50:59.012Z,11.30
2017-10-25T00:53:27.319Z,10.87
2017-10-25T00:55:54.843Z,8.93
2017-10-25T00:58:22.386Z,9.20
2017-10-25T01:00:49.918Z,9.57
2017-10-25T01:03:17.464Z,9.27
2017-10-25T01:05:45.000Z,9.47
2017-10-25T01:08:13.315Z,9.10
2017-10-25T01:10:40.838Z,10.07
2017-10-25T01:13:09.144Z,8.80
2017-10-25T01:15:36.678Z,10.33
2017-10-25T01:18:04.982Z,9.00
2017-10-25T01:20:32.506Z,9.33
2017-10-25T01:23:00.816Z,10.20
2017-10-25T01:25:28.347Z,9.50
2017-10-25T01:27:56.655Z,9.70
2017-10-25T01:30:24.190Z,10.20
2017-10-25T01:32:52.494Z,9.90
2017-10-25T01:35:20.015Z,9.53
2017-10-25T01:37:48.327Z,10.90
2017-10-25T01:40:16.606Z,8.77
2017-10-25T01:42:44.146Z,8.07
2017-10-25T01:45:12.446Z,8.13
2017-10-25T01:47:39.994Z,8.50
2017-10-25T01:50:07.518Z,8.93
2017-10-25T01:52:35.060Z,8.43
2017-10-25T01:55:02.582Z,7.17
2017-10-25T01:57:30.119Z,8.97
2017-10-25T01:59:58.403Z,8.50
2017-10-25T02:02:26.714Z,9.23
2017-10-25T02:04:54.242Z,10.00
2017-10-25T02:07:22.551Z,9.00
2017-10-25T02:09:50.833Z,9.93
2017-10-25T02:12:18.371Z,9.87
2017-10-25T02:14:45.895Z,8.80
2017-10-25T02:17:13.473Z,10.10
2017-10-25T02:19:41.762Z,10.27
2017-10-25T02:22:10.042Z,9.53
2017-10-25T02:24:37.582Z,9.30
2017-10-25T02:27:05.878Z,11.67
2017-10-25T02:29:33.422Z,9.00
2017-10-25T02:32:01.707Z,10.30
2017-10-25T02:34:30.993Z,8.20
2017-10-25T02:36:59.287Z,9.43
2017-10-25T02:39:27.595Z,9.07
2017-10-25T02:41:55.113Z,8.60
2017-10-25T02:44:22.650Z,9.27
2017-10-25T02:46:50.177Z,8.60
2017-10-25T02:49:17.717Z,8.40
2017-10-25T02:51:45.240Z,8.03
2017-10-25T02:54:12.778Z,8.47
2017-10-25T02:56:40.298Z,8.77
2017-10-25T02:59:07.843Z,8.83
2017-10-25T03:01:36.127Z,8.53
2017-10-25T03:04:03.667Z,9.70
2017-10-25T03:06:31.201Z,7.00
2017-10-25T03:08:58.742Z,7.57
2017-10-25T03:11:26.259Z,8.17
2017-10-25T03:13:54.565Z,8.40
2017-10-25T03:16:22.082Z,8.30
2017-10-25T03:18:49.622Z,9.30
2017-10-25T03:21:17.150Z,8.83
2017-10-25T03:23:44.696Z,8.00
2017-10-25T03:26:12.232Z,9.70
2017-10-25T03:28:40.547Z,7.77
2017-10-25T03:31:08.068Z,8.63
2017-10-25T03:33:35.606Z,8.30
2017-10-25T03:36:03.127Z,8.63
2017-10-25T03:38:30.670Z,9.00
2017-10-25T03:40:58.949Z,8.77
2017-10-25T03:43:26.490Z,9.13
2017-10-25T03:45:54.778Z,9.10
2017-10-25T03:48:23.077Z,9.37
2017-10-25T03:50:50.595Z,7.83
2017-10-25T03:53:18.134Z,9.60
2017-10-25T03:55:45.653Z,9.40
2017-10-25T03:58:13.194Z,7.97
2017-10-25T04:00:41.487Z,10.10
2017-10-25T04:03:09.025Z,9.00
2017-10-25T04:05:37.316Z,9.10
2017-10-25T04:08:05.619Z,9.77
2017-10-25T04:10:33.149Z,9.67
2017-10-25T04:13:01.459Z,8.57
2017-10-25T04:15:28.982Z,10.67
2017-10-25T04:17:57.296Z,9.23
2017-10-25T04:20:24.813Z,9.33
2017-10-25T04:22:53.118Z,9.37
2017-10-25T04:25:20.644Z,9.10
2017-10-25T04:27:48.207Z,8.97
2017-10-25T04:30:15.731Z,9.63
2017-10-25T04:32:43.256Z,8.77
2017-10-25T04:35:10.799Z,9.20
2017-10-25T04:37:39.091Z,8.60
2017-10-25T04:40:06.630Z,11.27
2017-10-25T04:42:34.917Z,9.30
2017-10-25T04:45:03.214Z,9.77
2017-10-25T04:47:30.747Z,10.50
2017-10-25T04:49:59.059Z,9.43
2017-10-25T04:52:26.579Z,10.37
2017-10-25T04:54:54.122Z,10.47
2017-10-25T04:57:21.644Z,8.53
2017-10-25T04:59:49.183Z,9.93
2017-10-25T05:02:16.706Z,8.60
2017-10-25T05:04:44.261Z,9.33
2017-10-25T05:07:11.787Z,8.07
2017-10-25T05:09:39.327Z,9.73
2017-10-25T05:12:06.855Z,8.67
2017-10-25T05:14:34.406Z,7.97
2017-10-25T05:17:01.928Z,8.17
2017-10-25T05:19:29.461Z,9.27
2017-10-25T05:21:58.628Z,9.10
2017-10-25T05:24:26.332Z,8.47
2017-10-25T05:26:55.401Z,8.40
2017-10-25T05:29:23.627Z,8.33
2017-10-25T05:31:51.575Z,8.20
2017-10-25T05:34:19.708Z,8.03
2017-10-25T05:36:48.502Z,9.10
2017-10-25T05:39:16.570Z,9.00
2017-10-25T05:41:44.613Z,8.40
2017-10-25T05:44:13.194Z,8.03
2017-10-25T05:46:41.762Z,8.90
2017-10-25T05:49:09.397Z,9.30
2017-10-25T05:51:37.689Z,10.43
2017-10-25T05:54:05.225Z,9.90
2017-10-25T05:56:33.510Z,9.50
2017-10-25T05:59:01.812Z,8.50
2017-10-25T06:01:29.332Z,8.70
2017-10-25T06:03:56.875Z,9.50
2017-10-25T06:06:24.390Z,9.03
2017-10-25T06:08:51.934Z,9.57
2017-10-25T06:11:20.218Z,9.97
2017-10-25T06:13:47.762Z,8.93
2017-10-25T06:16:16.047Z,9.30
2017-10-25T06:18:43.596Z,9.50
2017-10-25T06:21:11.878Z,8.80
2017-10-25T06:23:39.419Z,9.87
2017-10-25T06:26:06.940Z,9.10
2017-10-25T06:28:34.484Z,8.83
2017-10-25T06:31:02.006Z,7.10
2017-10-25T06:33:30.321Z,9.87
2017-10-25T06:35:57.862Z,12.80
2017-10-25T06:38:26.176Z,19.90
2017-10-25T06:40:53.711Z,13.13
2017-10-25T06:43:21.241Z,29.43
2017-10-25T06:45:48.786Z,33.47
2017-10-25T06:48:16.318Z,11.80
2017-10-25T06:50:43.867Z,13.50
2017-10-25T06:53:11.393Z,11.90
2017-10-25T06:55:38.936Z,8.93
2017-10-25T06:58:06.459Z,9.13
2017-10-25T07:00:34.008Z,7.67
2017-10-25T07:03:01.535Z,8.43
2017-10-25T07:05:29.839Z,7.80
2017-10-25T07:07:57.355Z,6.67
2017-10-25T07:10:24.905Z,7.20
2017-10-25T07:12:52.461Z,7.37
2017-10-25T07:15:20.014Z,8.50
2017-10-25T07:17:47.552Z,6.47
2017-10-25T07:20:15.100Z,6.57
2017-10-25T07:22:42.624Z,6.63
2017-10-25T07:25:10.159Z,6.63
2017-10-25T07:27:37.676Z,6.80
2017-10-25T07:30:05.219Z,6.80
2017-10-25T07:32:32.734Z,6.63
2017-10-25T07:35:00.275Z,7.70
2017-10-25T07:37:27.790Z,6.60
2017-10-25T07:39:56.096Z,5.43
2017-10-25T07:42:23.619Z,7.73
2017-10-25T07:44:51.932Z,6.30
2017-10-25T07:47:19.446Z,6.27
2017-10-25T07:49:46.979Z,6.43
2017-10-25T07:52:14.495Z,6.07
2017-10-25T07:54:42.040Z,5.83
2017-10-25T07:57:10.327Z,6.20
2017-10-25T07:59:38.635Z,5.57
2017-10-25T08:02:06.154Z,5.00
2017-10-25T08:04:34.465Z,4.93
2017-10-25T08:07:01.988Z,5.20
2017-10-25T08:09:30.391Z,4.93
2017-10-25T08:11:57.915Z,4.70
2017-10-25T08:14:25.450Z,4.70
2017-10-25T08:16:52.967Z,6.13
2017-10-25T08:19:20.511Z,4.70
2017-10-25T08:21:48.794Z,5.47
2017-10-25T08:24:17.096Z,5.00
2017-10-25T08:26:44.620Z,4.90
2017-10-25T08:29:12.923Z,4.67
2017-10-25T08:31:40.444Z,4.83
2017-10-25T08:34:07.979Z,5.13
2017-10-25T08:36:35.500Z,4.30
2017-10-25T08:39:03.038Z,4.50
2017-10-25T08:41:31.327Z,4.77
2017-10-25T08:43:59.627Z,4.47
2017-10-25T08:46:27.154Z,4.63
2017-10-25T08:48:55.471Z,4.40
2017-10-25T08:51:23.016Z,3.83
2017-10-25T08:53:50.539Z,3.47
2017-10-25T08:56:18.082Z,4.07
2017-10-25T08:58:45.610Z,3.80
2017-10-25T09:01:13.152Z,3.70
2017-10-25T09:03:40.672Z,2.90
2017-10-25T09:06:08.217Z,2.93
2017-10-25T09:08:35.738Z,3.10
2017-10-25T09:11:03.284Z,2.90
2017-10-25T09:13:31.658Z,2.60
2017-10-25T09:15:59.964Z,2.63
2017-10-25T09:18:27.479Z,2.83
2017-10-25T09:20:55.796Z,2.50
2017-10-25T09:23:23.314Z,2.10
2017-10-25T09:25:50.855Z,3.90
2017-10-25T09:28:18.375Z,2.90
2017-10-25T09:30:45.910Z,2.33
2017-10-25T09:33:14.196Z,2.47
2017-10-25T09:35:41.734Z,2.77
2017-10-25T09:38:10.026Z,2.50
2017-10-25T09:40:38.335Z,2.73
2017-10-25T09:43:05.858Z,2.23
2017-10-25T09:45:34.167Z,2.50
2017-10-25T09:48:01.689Z,2.50
2017-10-25T09:50:29.999Z,2.60
2017-10-25T09:52:57.523Z,2.37
2017-10-25T09:55:25.062Z,2.77
2017-10-25T09:57:52.583Z,2.63
2017-10-25T10:00:20.128Z,2.03
2017-10-25T10:02:47.660Z,2.13
2017-10-25T10:05:15.195Z,2.07
2017-10-25T10:07:42.725Z,2.43
2017-10-25T10:10:10.271Z,2.70
2017-10-25T10:12:37.800Z,1.97
2017-10-25T10:15:06.121Z,2.10
2017-10-25T10:17:33.634Z,2.03
2017-10-25T10:20:01.171Z,2.10
2017-10-25T10:22:28.687Z,1.80
2017-10-25T10:24:56.226Z,2.27
2017-10-25T10:27:24.515Z,1.73
2017-10-25T10:29:52.821Z,2.00
2017-10-25T10:32:20.340Z,1.90
2017-10-25T10:34:48.670Z,1.77
2017-10-25T10:37:16.190Z,1.90
2017-10-25T10:39:44.474Z,1.67
2017-10-25T10:42:12.018Z,2.07
2017-10-25T10:44:40.318Z,1.20
2017-10-25T10:47:07.857Z,1.80
2017-10-25T10:49:36.142Z,1.60
2017-10-25T10:52:03.694Z,1.70
2017-10-25T10:54:31.979Z,1.87
2017-10-25T10:57:00.294Z,1.23
2017-10-25T10:59:27.811Z,1.70
2017-10-25T11:01:56.312Z,1.60
2017-10-25T11:04:23.835Z,1.70
2017-10-25T11:06:51.376Z,3.50
2017-10-25T11:09:18.894Z,1.30
2017-10-25T11:11:46.441Z,1.60
2017-10-25T11:14:14.723Z,1.63
2017-10-25T11:16:42.266Z,1.57
2017-10-25T11:19:10.556Z,1.50
2017-10-25T11:21:38.104Z,1.80
2017-10-25T11:24:06.395Z,1.90
2017-10-25T11:26:33.931Z,1.40
2017-10-25T11:29:01.456Z,1.30
2017-10-25T11:31:28.999Z,1.33
2017-10-25T11:33:56.518Z,1.37
2017-10-25T11:36:24.822Z,1.20
2017-10-25T11:38:52.342Z,1.67
2017-10-25T11:41:19.886Z,1.67
2017-10-25T11:43:47.408Z,1.60
2017-10-25T11:46:14.955Z,1.40
2017-10-25T11:48:42.481Z,1.73
2017-10-25T11:51:10.028Z,1.37
2017-10-25T11:53:37.550Z,1.90
2017-10-25T11:56:05.106Z,1.30
2017-10-25T11:58:32.634Z,1.60
2017-10-25T12:01:00.946Z,1.53
2017-10-25T12:03:28.467Z,1.73
2017-10-25T12:05:56.006Z,1.53
2017-10-25T12:08:23.546Z,1.80
2017-10-25T12:10:51.094Z,1.53
2017-10-25T12:13:18.619Z,1.50
2017-10-25T12:15:46.918Z,1.27
2017-10-25T12:18:14.439Z,1.20
2017-10-25T12:20:41.980Z,1.50
2017-10-25T12:23:09.507Z,1.20
2017-10-25T12:25:39.133Z,1.40
2017-10-25T12:28:06.774Z,1.57
2017-10-25T12:30:36.025Z,1.33
2017-10-25T12:33:06.466Z,1.67
2017-10-25T12:35:34.317Z,1.43
2017-10-25T12:38:02.349Z,1.60
2017-10-25T12:40:29.886Z,1.47
2017-10-25T12:43:00.539Z,2.10
2017-10-25T12:45:28.162Z,1.50
2017-10-25T12:47:56.470Z,1.73
2017-10-25T12:50:24.029Z,1.30
2017-10-25T12:52:51.570Z,1.63
2017-10-25T12:55:19.849Z,1.47
2017-10-25T12:57:48.155Z,1.60
2017-10-25T13:00:15.673Z,1.63
2017-10-25T13:02:43.973Z,1.67
2017-10-25T13:05:11.492Z,1.33
2017-10-25T13:07:39.035Z,1.67
2017-10-25T13:10:08.654Z,1.63
2017-10-25T13:12:38.343Z,1.70
2017-10-25T13:15:06.499Z,1.53
2017-10-25T13:17:34.508Z,1.30
2017-10-25T13:20:02.034Z,1.80
2017-10-25T13:22:29.584Z,1.53
2017-10-25T13:24:57.109Z,1.77
2017-10-25T13:27:25.419Z,1.67
2017-10-25T13:29:52.935Z,1.63
2017-10-25T13:32:20.470Z,1.50
2017-10-25T13:34:47.983Z,1.70
2017-10-25T13:37:16.067Z,2.00
2017-10-25T13:39:43.590Z,1.77
2017-10-25T13:42:11.123Z,1.73
2017-10-25T13:44:38.643Z,2.13
2017-10-25T13:47:06.183Z,1.80
2017-10-25T13:49:34.499Z,2.00
2017-10-25T13:52:02.902Z,2.30
2017-10-25T13:54:30.420Z,1.53
2017-10-25T13:56:57.967Z,2.67
2017-10-25T13:59:26.257Z,1.80
2017-10-25T14:01:53.796Z,1.83
2017-10-25T14:04:22.086Z,1.90
2017-10-25T14:06:50.394Z,1.93
2017-10-25T14:09:17.910Z,1.87
2017-10-25T14:11:46.221Z,2.30
2017-10-25T14:14:13.752Z,1.93
2017-10-25T14:16:41.300Z,3.17
2017-10-25T14:19:08.822Z,1.50
2017-10-25T14:21:36.354Z,2.13
2017-10-25T14:24:03.879Z,1.90
2017-10-25T14:26:43.264Z,2.50
2017-10-25T14:29:10.828Z,2.20
2017-10-25T14:31:38.351Z,1.70
2017-10-25T14:34:06.670Z,2.20
2017-10-25T14:36:34.198Z,3.00
2017-10-25T14:39:02.512Z,4.20
2017-10-25T14:41:30.044Z,3.20
2017-10-25T14:43:57.583Z,3.73
2017-10-25T14:46:25.885Z,2.50
2017-10-25T14:48:53.426Z,2.50
2017-10-25T14:51:21.710Z,3.00
2017-10-25T14:53:50.019Z,2.23
2017-10-25T14:56:17.542Z,7.20
2017-10-25T14:58:45.848Z,2.77
2017-10-25T15:01:13.368Z,2.70
2017-10-25T15:03:40.906Z,2.00
2017-10-25T15:06:08.437Z,2.47
2017-10-25T15:08:35.975Z,2.67
2017-10-25T15:11:03.504Z,2.47
2017-10-25T15:13:31.041Z,2.20
2017-10-25T15:15:58.559Z,2.10
2017-10-25T15:18:26.100Z,2.57
2017-10-25T15:20:54.391Z,2.60
2017-10-25T15:23:21.931Z,2.30
2017-10-25T15:25:50.222Z,2.20
2017-10-25T15:28:18.526Z,2.47
2017-10-25T15:30:46.042Z,2.30
2017-10-25T15:33:14.346Z,3.37
2017-10-25T15:35:41.867Z,2.83
2017-10-25T15:38:09.413Z,3.17
2017-10-25T15:40:36.935Z,3.00
2017-10-25T15:43:04.479Z,2.77
2017-10-25T15:45:32.761Z,2.27
2017-10-25T15:48:00.307Z,2.90
2017-10-25T15:50:28.602Z,2.57
2017-10-25T15:52:56.141Z,2.40
2017-10-25T15:55:24.426Z,2.97
2017-10-25T15:57:51.969Z,3.00
2017-10-25T16:00:19.487Z,2.83
2017-10-25T16:02:47.032Z,2.67
2017-10-25T16:05:14.555Z,2.87
2017-10-25T16:07:42.862Z,3.47
2017-10-25T16:10:10.392Z,3.23
2017-10-25T16:12:38.693Z,3.10
2017-10-25T16:15:06.216Z,3.73
2017-10-25T16:17:33.759Z,2.80
2017-10-25T16:20:01.274Z,4.90
2017-10-25T16:22:28.820Z,3.53
2017-10-25T16:24:57.112Z,3.20
2017-10-25T16:27:24.658Z,2.90
2017-10-25T16:29:52.947Z,3.57
2017-10-25T16:32:20.487Z,2.90
2017-10-25T16:34:48.775Z,3.63
2017-10-25T16:37:17.066Z,3.50
2017-10-25T16:39:44.606Z,4.80
2017-10-25T16:42:12.900Z,5.10
2017-10-25T16:44:40.444Z,7.60
2017-10-25T16:47:08.748Z,20.60
2017-10-25T16:49:36.298Z,20.33
2017-10-25T16:52:03.823Z,15.43
2017-10-25T16:54:31.372Z,14.57
2017-10-25T16:56:58.899Z,11.33
2017-10-25T16:59:26.439Z,9.30
2017-10-25T17:01:53.966Z,6.90
2017-10-25T17:04:21.511Z,4.43
2017-10-25T17:06:49.032Z,6.20
2017-10-25T17:09:16.580Z,6.23
2017-10-25T17:11:44.107Z,7.80
2017-10-25T17:14:12.418Z,10.60
2017-10-25T17:16:39.938Z,9.23
2017-10-25T17:19:07.487Z,6.03
2017-10-25T17:21:35.003Z,5.03
2017-10-25T17:24:02.542Z,4.93
2017-10-25T17:26:30.069Z,3.63
2017-10-25T17:28:57.612Z,3.53
2017-10-25T17:31:25.126Z,4.10
2017-10-25T17:33:53.428Z,3.70
2017-10-25T17:36:20.958Z,3.87
2017-10-25T17:38:49.261Z,4.00
2017-10-25T17:41:16.790Z,4.23
2017-10-25T17:43:45.095Z,5.40
2017-10-25T17:46:12.612Z,6.37
2017-10-25T17:48:40.944Z,6.27
2017-10-25T17:51:08.472Z,5.77
2017-10-25T17:53:36.783Z,5.17
2017-10-25T17:56:04.334Z,5.80
2017-10-25T17:58:31.918Z,5.20
2017-10-25T18:00:59.517Z,4.17
2017-10-25T18:03:27.051Z,4.63
2017-10-25T18:05:54.571Z,4.40
2017-10-25T18:08:22.110Z,5.40
2017-10-25T18:10:50.389Z,4.37
2017-10-25T18:13:18.695Z,4.37
2017-10-25T18:15:46.223Z,4.30
2017-10-25T18:18:14.529Z,3.90
2017-10-25T18:20:42.062Z,4.60
2017-10-25T18:23:10.371Z,3.83
2017-10-25T18:25:37.886Z,3.80
2017-10-25T18:28:05.430Z,3.60
2017-10-25T18:30:32.955Z,3.93
2017-10-25T18:33:00.507Z,3.97
2017-10-25T18:35:28.028Z,3.70
2017-10-25T18:37:55.586Z,3.80
2017-10-25T18:40:23.122Z,3.50
2017-10-25T18:42:50.664Z,4.10
2017-10-25T18:45:18.209Z,4.20
2017-10-25T18:47:45.736Z,5.80
2017-10-25T18:50:14.057Z,5.57
2017-10-25T18:52:41.586Z,5.23
2017-10-25T18:55:09.898Z,3.43
2017-10-25T18:57:37.419Z,3.53
2017-10-25T19:00:05.724Z,3.13
2017-10-25T19:02:33.239Z,3.17
2017-10-25T19:05:00.780Z,3.37
2017-10-25T19:07:28.316Z,2.63
2017-10-25T19:09:55.864Z,2.20
2017-10-25T19:12:23.386Z,2.90
2017-10-25T19:14:50.934Z,4.00
2017-10-25T19:17:18.471Z,4.07
2017-10-25T19:19:46.019Z,4.10
2017-10-25T19:22:13.542Z,3.60
2017-10-25T19:24:41.078Z,4.07
2017-10-25T19:27:08.599Z,3.80
2017-10-25T19:29:36.144Z,3.43
2017-10-25T19:32:03.663Z,3.37
2017-10-25T19:34:31.199Z,3.30
2017-10-25T19:36:58.714Z,3.27
2017-10-25T19:39:26.256Z,3.10
2017-10-25T19:41:54.547Z,3.37
2017-10-25T19:44:22.095Z,3.30
2017-10-25T19:46:50.383Z,3.67
2017-10-25T19:49:17.925Z,2.90
2017-10-25T19:51:45.448Z,3.93
2017-10-25T19:54:13.048Z,3.37
2017-10-25T19:56:40.569Z,3.77
2017-10-25T19:59:08.128Z,4.07
2017-10-25T20:01:35.645Z,4.20
2017-10-25T20:04:03.963Z,3.83
2017-10-25T20:06:31.491Z,3.50
2017-10-25T20:08:59.045Z,3.03
2017-10-25T20:11:27.335Z,3.70
2017-10-25T20:13:54.873Z,3.33
2017-10-25T20:16:23.159Z,4.00
2017-10-25T20:18:51.463Z,4.10
2017-10-25T20:21:18.982Z,3.63
2017-10-25T20:23:46.518Z,3.83
2017-10-25T20:26:14.042Z,4.30
2017-10-25T20:28:41.604Z,3.93
2017-10-25T20:31:09.123Z,3.43
2017-10-25T20:33:37.423Z,3.90
2017-10-25T20:36:04.943Z,3.10
2017-10-25T20:38:32.499Z,4.37
2017-10-25T20:41:00.012Z,4.13
2017-10-25T20:43:27.554Z,3.77
2017-10-25T20:45:55.831Z,3.27
2017-10-25T20:48:23.355Z,3.43
2017-10-25T20:50:50.899Z,3.00
2017-10-25T20:53:19.186Z,3.00
2017-10-25T20:55:46.731Z,3.77
2017-10-25T20:58:15.025Z,2.70
2017-10-25T21:00:42.567Z,3.93
2017-10-25T21:03:10.086Z,4.70
2017-10-25T21:05:38.403Z,4.93
2017-10-25T21:08:05.939Z,4.90
2017-10-25T21:10:33.474Z,4.33
2017-10-25T21:13:01.762Z,4.20
2017-10-25T21:15:30.065Z,3.40
2017-10-25T21:17:57.613Z,3.40
2017-10-25T21:20:25.154Z,3.60
2017-10-25T21:22:53.439Z,3.53
2017-10-25T21:25:21.743Z,3.90
2017-10-25T21:27:49.258Z,4.70
2017-10-25T21:30:16.799Z,5.70
2017-10-25T21:32:44.320Z,4.73
2017-10-25T21:35:11.862Z,4.33
2017-10-25T21:37:39.387Z,5.10
2017-10-25T21:40:06.925Z,4.00
2017-10-25T21:42:34.464Z,4.90
2017-10-25T21:45:02.016Z,8.70
2017-10-25T21:47:29.539Z,9.20
2017-10-25T21:49:57.851Z,7.37
2017-10-25T21:52:25.371Z,7.20
2017-10-25T21:54:52.907Z,5.80
2017-10-25T21:57:20.419Z,8.37
2017-10-25T21:59:47.962Z,5.67
2017-10-25T22:02:16.251Z,5.90
2017-10-25T22:04:44.555Z,6.10
2017-10-25T22:07:12.075Z,4.60
2017-10-25T22:09:39.610Z,4.67
2017-10-25T22:12:07.126Z,3.77
2017-10-25T22:14:34.658Z,4.13
2017-10-25T22:17:02.953Z,3.40
2017-10-25T22:19:30.475Z,3.83
2017-10-25T22:21:58.010Z,3.80
2017-10-25T22:24:25.534Z,4.77
2017-10-25T22:26:53.074Z,3.80
2017-10-25T22:29:21.363Z,3.60
2017-10-25T22:31:49.671Z,3.40
2017-10-25T22:34:17.187Z,3.03
2017-10-25T22:36:45.505Z,3.97
2017-10-25T22:39:13.022Z,4.23
2017-10-25T22:41:40.563Z,4.07
2017-10-25T22:44:08.099Z,5.87
2017-10-25T22:46:35.649Z,3.60
2017-10-25T22:49:03.168Z,3.80
2017-10-25T22:51:31.466Z,4.43
2017-10-25T22:53:58.980Z,5.37
2017-10-25T22:56:26.516Z,5.23
2017-10-25T22:58:54.041Z,3.67
2017-10-25T23:01:22.343Z,3.10
2017-10-25T23:03:49.854Z,3.20
2017-10-25T23:06:17.386Z,3.73
2017-10-25T23:08:44.903Z,2.73
2017-10-25T23:11:12.455Z,2.80
2017-10-25T23:13:40.732Z,2.87
2017-10-25T23:16:09.019Z,2.60
2017-10-25T23:18:36.553Z,4.00
2017-10-25T23:21:04.834Z,4.50
2017-10-25T23:23:33.135Z,2.43
2017-10-25T23:26:00.649Z,2.40
2017-10-25T23:28:28.199Z,2.77
2017-10-25T23:30:55.730Z,2.80
2017-10-25T23:33:23.279Z,2.40
2017-10-25T23:35:50.804Z,2.90
2017-10-25T23:38:19.124Z,3.17
2017-10-25T23:40:46.652Z,4.30
2017-10-25T23:43:14.953Z,2.80
2017-10-25T23:45:42.471Z,2.80
2017-10-25T23:48:09.998Z,3.67
2017-10-25T23:50:37.514Z,2.90
2017-10-25T23:53:05.071Z,3.33
2017-10-25T23:55:33.351Z,3.03
2017-10-25T23:58:01.659Z,3.23
